Time;durP1;ratioP1;P1;durP2;ratioP2;P2;SDS_P1;SDS_P2;PMS_P1;PMS_P2;Temp;Humidity;BMP_temperature;BMP_pressure;BME280_temperature;BME280_humidity;BME280_pressure;Samples;Min_cycle;Max_cycle;Signal;HPM_P1;HPM_P2
2020/12/23 00:00:13;;;;;;;42.55;25.58;;;10.30;97.90;;;;;;4887437;29;20029;-77
2020/12/23 00:02:44;;;;;;;58.55;33.50;;;10.30;97.90;;;;;;4862125;29;20121;-76
2020/12/23 00:05:14;;;;;;;51.72;29.38;;;10.30;97.90;;;;;;4882451;29;20047;-76
2020/12/23 00:07:41;;;;;;;37.20;21.00;;;10.30;97.90;;;;;;4867383;29;20057;-78
2020/12/23 00:10:09;;;;;;;34.85;20.33;;;10.30;98.00;;;;;;4852286;29;20064;-77
2020/12/23 00:12:36;;;;;;;42.47;25.95;;;10.30;98.00;;;;;;4867447;29;20052;-76
2020/12/23 00:15:06;;;;;;;39.00;20.40;;;10.30;98.00;;;;;;4855511;29;20033;-77
2020/12/23 00:17:32;;;;;;;36.97;20.27;;;10.30;98.00;;;;;;4871158;29;20036;-76
2020/12/23 00:19:59;;;;;;;35.00;19.17;;;10.30;98.00;;;;;;4869431;29;20040;-76
2020/12/23 00:22:26;;;;;;;33.30;19.48;;;10.30;98.00;;;;;;4864933;29;20041;-77
2020/12/23 00:24:53;;;;;;;38.45;20.67;;;10.30;98.00;;;;;;4857219;29;20496;-76
2020/12/23 00:27:21;;;;;;;41.10;20.85;;;10.40;98.00;;;;;;4874850;29;20045;-77
2020/12/23 00:29:49;;;;;;;35.13;19.20;;;10.40;98.00;;;;;;4867546;29;20055;-76
2020/12/23 00:32:20;;;;;;;36.13;20.83;;;10.40;98.00;;;;;;4859572;29;20049;-76
2020/12/23 00:34:47;;;;;;;40.90;21.05;;;10.40;98.10;;;;;;4865060;29;20060;-77
2020/12/23 00:37:14;;;;;;;43.33;23.25;;;10.40;98.30;;;;;;4887507;29;20063;-77
2020/12/23 00:39:40;;;;;;;38.00;21.27;;;10.40;98.00;;;;;;4874450;29;20032;-77
2020/12/23 00:42:06;;;;;;;35.55;18.92;;;10.40;98.00;;;;;;4852746;29;20029;-76
2020/12/23 00:44:33;;;;;;;50.17;22.42;;;10.40;98.00;;;;;;4886394;29;20601;-76
2020/12/23 00:46:59;;;;;;;57.03;25.42;;;10.40;98.00;;;;;;4871391;29;20040;-77
2020/12/23 00:49:26;;;;;;;50.83;23.95;;;10.40;98.00;;;;;;4892757;29;20092;-76
2020/12/23 00:51:53;;;;;;;69.15;30.88;;;10.40;98.00;;;;;;4853718;29;20040;-76
2020/12/23 00:54:20;;;;;;;84.82;32.47;;;10.40;98.00;;;;;;4860192;29;20047;-76
2020/12/23 00:56:47;;;;;;;54.67;27.48;;;10.40;98.00;;;;;;4860448;29;20040;-76
2020/12/23 00:59:13;;;;;;;59.58;28.48;;;10.30;97.90;;;;;;4859988;29;20040;-76
2020/12/23 01:01:40;;;;;;;51.83;24.20;;;10.30;98.00;;;;;;4882093;29;20040;-76
2020/12/23 01:04:06;;;;;;;64.65;26.90;;;10.30;98.00;;;;;;4854704;29;20045;-76
2020/12/23 01:06:32;;;;;;;45.95;22.25;;;10.30;98.00;;;;;;4872261;29;20064;-76
2020/12/23 01:08:59;;;;;;;41.03;20.00;;;10.30;98.10;;;;;;4850337;29;20405;-77
2020/12/23 01:11:25;;;;;;;55.35;22.50;;;10.40;98.10;;;;;;4887090;29;20056;-76
2020/12/23 01:13:52;;;;;;;54.85;21.77;;;10.40;98.10;;;;;;4876162;29;20048;-76
2020/12/23 01:16:22;;;;;;;62.63;23.83;;;10.40;98.10;;;;;;4878549;29;20036;-76
2020/12/23 01:18:49;;;;;;;57.92;23.13;;;10.40;98.10;;;;;;4849856;29;20036;-77
2020/12/23 01:21:15;;;;;;;149.18;36.67;;;10.40;98.10;;;;;;4895832;29;20063;-76
2020/12/23 01:23:43;;;;;;;54.58;24.52;;;10.40;98.10;;;;;;4889982;29;20051;-76
2020/12/23 01:26:10;;;;;;;106.32;31.88;;;10.40;98.10;;;;;;4897818;29;20044;-76
2020/12/23 01:28:36;;;;;;;83.88;26.75;;;10.40;98.10;;;;;;4869129;29;20039;-76
2020/12/23 01:31:06;;;;;;;118.10;30.90;;;10.40;98.10;;;;;;4889079;29;20048;-76
2020/12/23 01:33:33;;;;;;;95.13;31.00;;;10.40;98.10;;;;;;4878165;29;20041;-76
2020/12/23 01:36:01;;;;;;;82.00;27.15;;;10.40;98.30;;;;;;4882689;29;20397;-76
2020/12/23 01:38:28;;;;;;;67.65;28.08;;;10.40;98.10;;;;;;4892009;29;20025;-76
2020/12/23 01:41:00;;;;;;;146.45;33.70;;;10.40;98.10;;;;;;4899853;29;20044;-76
2020/12/23 01:43:27;;;;;;;83.07;26.23;;;10.40;98.10;;;;;;4895311;29;20059;-75
2020/12/23 01:45:54;;;;;;;98.47;30.92;;;10.40;98.10;;;;;;4883878;29;20060;-76
2020/12/23 01:48:25;;;;;;;74.32;30.02;;;10.30;98.10;;;;;;4896513;29;20040;-75
2020/12/23 01:50:52;;;;;;;91.78;28.13;;;10.30;98.10;;;;;;4872825;29;20051;-76
2020/12/23 01:53:18;;;;;;;150.60;31.98;;;10.30;98.20;;;;;;4897992;29;20053;-76
2020/12/23 01:55:46;;;;;;;81.80;26.40;;;10.30;98.20;;;;;;4868833;29;20047;-76
2020/12/23 01:58:14;;;;;;;102.85;26.95;;;10.30;98.20;;;;;;4896973;29;20048;-76
2020/12/23 02:00:41;;;;;;;53.95;20.73;;;10.30;98.20;;;;;;4859428;29;20407;-76
2020/12/23 02:03:09;;;;;;;62.13;22.98;;;10.30;98.20;;;;;;4876107;29;20380;-76
2020/12/23 02:05:39;;;;;;;89.45;28.27;;;10.30;98.20;;;;;;4884190;29;20044;-76
2020/12/23 02:08:06;;;;;;;122.95;32.03;;;10.40;98.30;;;;;;4896249;29;20067;-76
2020/12/23 02:10:33;;;;;;;146.00;31.98;;;10.40;98.30;;;;;;4866097;29;20428;-78
2020/12/23 02:12:59;;;;;;;85.55;25.02;;;10.30;98.30;;;;;;4884997;29;20048;-78
2020/12/23 02:15:26;;;;;;;201.68;36.67;;;10.30;98.30;;;;;;4859025;29;20037;-78
2020/12/23 02:17:53;;;;;;;135.60;33.20;;;10.40;98.30;;;;;;4868897;29;20048;-78
2020/12/23 02:20:20;;;;;;;129.40;30.23;;;10.30;98.30;;;;;;4882684;29;20045;-78
2020/12/23 02:22:46;;;;;;;66.85;23.58;;;10.30;98.30;;;;;;4886972;29;20040;-76
2020/12/23 02:25:13;;;;;;;75.32;24.80;;;10.30;98.30;;;;;;4869376;29;20048;-78
2020/12/23 02:27:40;;;;;;;80.13;27.77;;;10.30;98.40;;;;;;4875494;29;20048;-78
2020/12/23 02:30:08;;;;;;;186.60;34.72;;;10.40;98.40;;;;;;4882760;29;20122;-77
2020/12/23 02:32:35;;;;;;;127.57;30.98;;;10.40;98.40;;;;;;4872099;29;20463;-77
2020/12/23 02:35:03;;;;;;;129.57;30.02;;;10.40;98.40;;;;;;4862231;29;20411;-75
2020/12/23 02:37:30;;;;;;;136.52;28.88;;;10.30;98.40;;;;;;4876381;29;20040;-75
2020/12/23 02:39:57;;;;;;;105.28;29.73;;;10.30;98.40;;;;;;4852827;29;20035;-75
2020/12/23 02:42:24;;;;;;;222.07;31.52;;;10.40;98.40;;;;;;4889772;29;20041;-78
2020/12/23 02:44:53;;;;;;;218.73;33.13;;;10.30;98.40;;;;;;4885545;29;20049;-77
2020/12/23 02:47:20;;;;;;;167.48;34.38;;;10.40;98.40;;;;;;4875826;29;20052;-78
2020/12/23 02:49:47;;;;;;;78.07;26.33;;;10.40;98.40;;;;;;4888678;29;20487;-75
2020/12/23 02:52:13;;;;;;;135.32;25.25;;;10.40;98.40;;;;;;4883990;29;20032;-78
2020/12/23 02:54:40;;;;;;;264.55;33.15;;;10.40;98.70;;;;;;4866485;29;20752;-77
2020/12/23 02:57:08;;;;;;;196.18;32.15;;;10.40;98.50;;;;;;4895927;29;20064;-75
2020/12/23 02:59:34;;;;;;;178.70;33.20;;;10.40;98.50;;;;;;4851158;29;20045;-75
2020/12/23 03:02:01;;;;;;;239.82;35.67;;;10.40;98.50;;;;;;4848909;29;20029;-75
2020/12/23 03:04:27;;;;;;;162.50;30.25;;;10.40;98.50;;;;;;4894760;29;20044;-78
2020/12/23 03:06:54;;;;;;;142.02;29.63;;;10.40;98.50;;;;;;4867658;29;20056;-78
2020/12/23 03:09:21;;;;;;;125.47;27.88;;;10.40;98.50;;;;;;4890830;29;20036;-75
2020/12/23 03:11:47;;;;;;;209.25;30.83;;;10.40;98.50;;;;;;4897727;29;20044;-75
2020/12/23 03:14:14;;;;;;;432.83;41.13;;;10.40;98.50;;;;;;4869122;29;20041;-77
2020/12/23 03:16:41;;;;;;;154.30;29.20;;;10.40;98.50;;;;;;4900936;29;20039;-78
2020/12/23 03:19:07;;;;;;;241.75;33.15;;;10.40;98.50;;;;;;4841314;29;20040;-78
2020/12/23 03:21:34;;;;;;;240.13;33.53;;;10.40;98.50;;;;;;4883534;29;20029;-77
2020/12/23 03:24:00;;;;;;;312.27;35.25;;;10.40;98.50;;;;;;4884821;29;20068;-76
2020/12/23 03:26:27;;;;;;;183.18;30.05;;;10.40;98.60;;;;;;4852475;29;20047;-75
2020/12/23 03:28:56;;;;;;;136.32;30.02;;;10.40;98.60;;;;;;4868649;29;20044;-77
2020/12/23 03:31:23;;;;;;;416.73;40.88;;;10.40;98.60;;;;;;4875920;29;20040;-77
2020/12/23 03:33:49;;;;;;;473.77;44.53;;;10.40;98.60;;;;;;4868312;29;20060;-75
2020/12/23 03:36:16;;;;;;;281.10;34.22;;;10.40;98.60;;;;;;4870090;29;20051;-78
2020/12/23 03:38:42;;;;;;;474.08;42.22;;;10.40;98.60;;;;;;4880638;29;20036;-78
2020/12/23 03:41:09;;;;;;;550.05;44.63;;;10.40;98.60;;;;;;4894940;29;20044;-78
2020/12/23 03:43:35;;;;;;;295.77;34.35;;;10.40;98.60;;;;;;4884600;29;20044;-78
2020/12/23 03:46:02;;;;;;;330.88;33.85;;;10.50;98.60;;;;;;4900760;29;20048;-78
2020/12/23 03:48:29;;;;;;;226.45;31.65;;;10.40;98.60;;;;;;4870792;29;20044;-75
2020/12/23 03:50:55;;;;;;;220.30;30.02;;;10.40;98.60;;;;;;4899452;29;20053;-78
2020/12/23 03:53:22;;;;;;;576.08;45.40;;;10.40;98.60;;;;;;4838973;29;20511;-78
2020/12/23 03:55:49;;;;;;;120.03;24.73;;;10.40;98.60;;;;;;4899576;29;20051;-78
2020/12/23 03:58:16;;;;;;;196.40;28.00;;;10.50;98.70;;;;;;4868809;29;20056;-78
2020/12/23 04:00:43;;;;;;;419.13;37.60;;;10.40;98.70;;;;;;4879145;29;20048;-78
2020/12/23 04:03:09;;;;;;;377.48;36.28;;;10.50;98.70;;;;;;4878726;29;20033;-78
2020/12/23 04:05:37;;;;;;;140.27;25.88;;;10.50;98.70;;;;;;4874363;29;20044;-78
2020/12/23 04:08:04;;;;;;;137.80;24.45;;;10.50;98.70;;;;;;4879411;29;20056;-79
2020/12/23 04:10:31;;;;;;;142.98;25.75;;;10.50;98.70;;;;;;4879178;29;20048;-78
2020/12/23 04:12:57;;;;;;;417.60;35.25;;;10.50;98.70;;;;;;4885171;29;20041;-78
2020/12/23 04:15:24;;;;;;;193.43;29.23;;;10.50;98.70;;;;;;4855604;29;20036;-78
2020/12/23 04:17:52;;;;;;;245.55;28.23;;;10.50;98.70;;;;;;4890954;29;20044;-76
2020/12/23 04:20:18;;;;;;;205.77;26.52;;;10.50;98.70;;;;;;4899960;29;20495;-78
2020/12/23 04:22:45;;;;;;;290.98;36.13;;;10.50;98.80;;;;;;4863388;29;20393;-76
2020/12/23 04:25:11;;;;;;;197.25;29.63;;;10.50;98.80;;;;;;4841010;29;20047;-76
2020/12/23 04:27:38;;;;;;;530.88;40.60;;;10.50;98.70;;;;;;4900369;29;20048;-76
2020/12/23 04:30:07;;;;;;;357.60;34.45;;;10.50;98.80;;;;;;4861385;29;20059;-76
2020/12/23 04:32:34;;;;;;;183.77;27.63;;;10.50;98.70;;;;;;4879266;29;20047;-76
2020/12/23 04:35:03;;;;;;;152.90;26.33;;;10.50;98.80;;;;;;4879658;29;20507;-76
2020/12/23 04:37:34;;;;;;;95.25;23.60;;;10.50;98.80;;;;;;4864143;29;20051;-76
2020/12/23 04:40:03;;;;;;;165.35;25.35;;;10.50;99.10;;;;;;4878370;29;20059;-77
2020/12/23 04:42:30;;;;;;;412.67;36.15;;;10.60;98.80;;;;;;4877626;29;20087;-75
2020/12/23 04:44:57;;;;;;;317.10;31.23;;;10.60;98.80;;;;;;4885956;29;20778;-75
2020/12/23 04:47:25;;;;;;;159.35;24.10;;;10.60;98.80;;;;;;4863230;29;20061;-80
2020/12/23 04:49:56;;;;;;;193.07;25.42;;;10.60;98.80;;;;;;4863999;29;20041;-80
2020/12/23 04:52:31;;;;;;;208.93;28.10;;;10.60;98.80;;;;;;4887566;29;20047;-81
2020/12/23 04:55:00;;;;;;;200.15;31.60;;;10.60;99.10;;;;;;4890495;29;20040;-81
2020/12/23 04:57:28;;;;;;;188.95;30.25;;;10.70;98.80;;;;;;4885860;29;20040;-80
2020/12/23 04:59:55;;;;;;;135.85;27.38;;;10.60;98.80;;;;;;4882982;29;20440;-83
2020/12/23 05:02:22;;;;;;;169.90;27.77;;;10.60;98.80;;;;;;4888102;29;20036;-83
2020/12/23 05:04:49;;;;;;;84.13;21.33;;;10.60;98.90;;;;;;4897763;29;20059;-83
2020/12/23 05:07:19;;;;;;;48.15;16.10;;;10.50;99.20;;;;;;4878392;29;20068;-83
2020/12/23 05:09:48;;;;;;;91.25;20.67;;;10.50;98.90;;;;;;4890327;29;20064;-82
2020/12/23 05:12:16;;;;;;;66.45;18.27;;;10.60;99.00;;;;;;4897626;29;20052;-83
2020/12/23 05:14:43;;;;;;;60.25;18.42;;;10.60;99.00;;;;;;4878364;29;20064;-83
2020/12/23 05:17:10;;;;;;;112.85;20.35;;;10.60;99.00;;;;;;4877270;29;20063;-80
2020/12/23 05:19:40;;;;;;;87.25;19.80;;;10.60;99.00;;;;;;4877746;29;20040;-83
2020/12/23 05:22:08;;;;;;;164.50;21.23;;;10.70;99.10;;;;;;4880374;29;20036;-81
2020/12/23 05:24:36;;;;;;;54.30;17.50;;;10.70;99.10;;;;;;4890552;29;20055;-81
2020/12/23 05:27:06;;;;;;;87.18;17.30;;;10.70;99.10;;;;;;4891093;29;20075;-81
2020/12/23 05:29:34;;;;;;;145.90;23.88;;;10.70;99.40;;;;;;4880700;29;20040;-81
2020/12/23 05:32:04;;;;;;;155.30;23.13;;;10.70;99.10;;;;;;4863211;29;20036;-80
2020/12/23 05:34:35;;;;;;;57.45;16.30;;;10.70;99.10;;;;;;4878498;29;20047;-82
2020/12/23 05:37:03;;;;;;;56.22;17.77;;;10.70;99.10;;;;;;4849568;29;20500;-80
2020/12/23 05:39:33;;;;;;;76.00;18.05;;;10.80;99.10;;;;;;4855610;29;20074;-80
2020/12/23 05:42:00;;;;;;;64.60;17.13;;;10.80;99.10;;;;;;4890331;29;20029;-81
2020/12/23 05:44:29;;;;;;;126.72;26.27;;;10.70;99.10;;;;;;4862936;29;20056;-76
2020/12/23 05:46:56;;;;;;;72.95;20.63;;;10.70;99.10;;;;;;4849773;29;20071;-76
2020/12/23 05:49:24;;;;;;;62.28;16.98;;;10.70;99.10;;;;;;4885855;29;20492;-76
2020/12/23 05:51:51;;;;;;;66.82;22.45;;;10.70;99.20;;;;;;4887590;29;20033;-80
2020/12/23 05:54:20;;;;;;;46.10;18.02;;;10.80;99.20;;;;;;4896347;29;20802;-80
2020/12/23 05:56:51;;;;;;;82.53;21.67;;;10.80;99.20;;;;;;4880976;29;20040;-80
2020/12/23 05:59:19;;;;;;;87.20;22.05;;;10.80;99.20;;;;;;4898504;29;20051;-81
2020/12/23 06:01:45;;;;;;;40.33;17.13;;;10.80;99.20;;;;;;4882405;29;20032;-80
2020/12/23 06:04:15;;;;;;;52.72;16.63;;;10.80;99.30;;;;;;4899119;29;20412;-80
2020/12/23 06:06:44;;;;;;;37.33;14.20;;;10.80;99.30;;;;;;4881171;29;20068;-80
2020/12/23 06:09:14;;;;;;;29.20;11.80;;;10.80;99.30;;;;;;4883369;29;20041;-79
2020/12/23 06:11:47;;;;;;;39.45;13.75;;;10.80;99.30;;;;;;4878894;29;20060;-75
2020/12/23 06:14:23;;;;;;;43.35;14.40;;;10.90;99.40;;;;;;4879473;29;20050;-75
2020/12/23 06:16:59;;;;;;;44.70;17.33;;;10.90;99.40;;;;;;4864745;29;20040;-80
2020/12/23 06:19:26;;;;;;;31.60;13.88;;;10.90;99.40;;;;;;4896731;29;20032;-80
2020/12/23 06:21:54;;;;;;;44.70;14.30;;;10.90;99.40;;;;;;4880907;29;20028;-80
2020/12/23 06:24:21;;;;;;;21.13;10.45;;;10.90;99.40;;;;;;4871070;29;20045;-80
2020/12/23 06:26:53;;;;;;;25.65;10.57;;;10.90;99.70;;;;;;4897624;29;20036;-80
2020/12/23 06:29:23;;;;;;;23.70;9.57;;;10.90;99.40;;;;;;4856090;29;20061;-82
2020/12/23 06:32:01;;;;;;;24.27;11.75;;;11.00;99.50;;;;;;4884165;29;20032;-83
2020/12/23 06:34:55;;;;;;;25.45;10.88;;;10.90;99.50;;;;;;4885886;29;20049;-80
2020/12/23 06:37:26;;;;;;;41.65;15.13;;;11.00;99.50;;;;;;4875444;29;20040;-82
2020/12/23 06:39:53;;;;;;;21.23;10.23;;;11.00;99.50;;;;;;4880074;29;20033;-83
2020/12/23 06:42:19;;;;;;;17.80;8.23;;;11.00;99.50;;;;;;4899919;29;20041;-83
2020/12/23 06:44:53;;;;;;;13.70;7.43;;;11.10;99.60;;;;;;4877088;29;20044;-82
2020/12/23 06:47:25;;;;;;;17.90;7.47;;;11.00;99.60;;;;;;4897584;29;20059;-80
2020/12/23 06:49:57;;;;;;;31.83;11.70;;;11.10;99.60;;;;;;4866002;29;20033;-80
2020/12/23 06:52:27;;;;;;;27.85;10.88;;;11.10;99.60;;;;;;4880387;29;20291;-80
2020/12/23 06:55:09;;;;;;;22.25;10.05;;;11.10;99.60;;;;;;4896979;29;20060;-82
2020/12/23 06:57:35;;;;;;;29.30;13.80;;;11.10;99.70;;;;;;4849715;29;20373;-81
2020/12/23 07:00:07;;;;;;;28.13;11.68;;;11.10;99.60;;;;;;4877099;29;20040;-81
2020/12/23 07:02:46;;;;;;;22.92;10.82;;;11.10;99.70;;;;;;4879993;29;20051;-81
2020/12/23 07:05:23;;;;;;;28.00;11.50;;;11.20;99.70;;;;;;4889138;29;20056;-80
2020/12/23 07:07:51;;;;;;;44.40;17.48;;;11.20;99.70;;;;;;4875548;29;20049;-82
2020/12/23 07:10:20;;;;;;;33.70;15.32;;;11.20;99.70;;;;;;4871063;29;20049;-82
2020/12/23 07:12:54;;;;;;;39.63;16.83;;;11.20;99.70;;;;;;4863840;29;20041;-82
2020/12/23 07:15:28;;;;;;;21.65;13.35;;;11.20;99.70;;;;;;4854726;29;20472;-81
2020/12/23 07:18:00;;;;;;;33.55;15.93;;;11.30;99.80;;;;;;4870488;29;20366;-82
2020/12/23 07:20:30;;;;;;;36.78;16.67;;;11.30;99.80;;;;;;4885931;29;20037;-82
2020/12/23 07:23:03;;;;;;;30.02;15.30;;;11.30;99.80;;;;;;4842980;29;20044;-81
2020/12/23 07:25:34;;;;;;;31.45;14.80;;;11.30;99.80;;;;;;4886021;29;20033;-80
2020/12/23 07:28:03;;;;;;;29.63;15.55;;;11.40;99.80;;;;;;4855387;29;20037;-81
2020/12/23 07:30:35;;;;;;;49.92;21.35;;;11.40;99.80;;;;;;4890589;29;20512;-81
2020/12/23 07:33:15;;;;;;;26.45;15.35;;;11.40;99.80;;;;;;4853512;29;20492;-80
2020/12/23 07:35:48;;;;;;;37.42;17.30;;;11.40;99.80;;;;;;4862176;29;20044;-80
2020/12/23 07:38:15;;;;;;;36.78;19.30;;;11.40;99.80;;;;;;4856604;29;20535;-80
2020/12/23 07:40:42;;;;;;;44.33;19.50;;;11.40;99.80;;;;;;4873280;29;20043;-80
2020/12/23 07:43:11;;;;;;;35.25;16.48;;;11.50;99.90;;;;;;4843621;29;20040;-80
2020/12/23 07:45:38;;;;;;;27.65;16.30;;;11.50;99.90;;;;;;4883498;29;20056;-80
2020/12/23 07:48:05;;;;;;;27.55;16.00;;;11.50;99.90;;;;;;4860952;29;20397;-80
2020/12/23 07:50:46;;;;;;;30.13;16.73;;;11.60;99.90;;;;;;4887785;29;20040;-80
2020/12/23 07:53:19;;;;;;;33.08;15.32;;;11.60;99.90;;;;;;4842878;29;20048;-80
2020/12/23 07:55:58;;;;;;;26.17;14.77;;;11.60;99.90;;;;;;4882566;29;20532;-80
2020/12/23 07:58:25;;;;;;;36.50;17.98;;;11.60;99.90;;;;;;4871684;29;20119;-80
2020/12/23 08:00:51;;;;;;;24.80;14.90;;;11.60;99.90;;;;;;4884040;29;20048;-80
2020/12/23 08:03:25;;;;;;;22.38;13.50;;;11.70;99.90;;;;;;4841471;29;20041;-80
2020/12/23 08:06:08;;;;;;;30.63;16.63;;;11.70;99.90;;;;;;4867694;29;20049;-80
2020/12/23 08:08:43;;;;;;;18.73;12.52;;;11.70;99.90;;;;;;4885749;29;20052;-80
2020/12/23 08:11:11;;;;;;;28.75;15.77;;;11.70;99.90;;;;;;4870925;29;20047;-80
2020/12/23 08:13:38;;;;;;;23.55;14.02;;;11.80;99.90;;;;;;4884966;29;20049;-80
2020/12/23 08:16:15;;;;;;;19.20;12.85;;;11.80;99.90;;;;;;4892906;29;20480;-80
2020/12/23 08:18:42;;;;;;;33.13;17.35;;;11.80;99.90;;;;;;4892771;29;20037;-80
2020/12/23 08:21:14;;;;;;;25.15;14.57;;;11.80;99.90;;;;;;4896159;29;20052;-84
2020/12/23 08:23:41;;;;;;;34.85;18.70;;;11.80;99.90;;;;;;4858465;29;20074;-83
2020/12/23 08:26:08;;;;;;;33.70;19.50;;;11.80;99.90;;;;;;4878777;29;20481;-81
2020/12/23 08:28:40;;;;;;;26.65;15.93;;;11.90;99.90;;;;;;4895229;29;20063;-81
2020/12/23 08:31:15;;;;;;;26.33;14.88;;;11.90;99.90;;;;;;4849051;29;20044;-81
2020/12/23 08:33:44;;;;;;;22.85;14.02;;;11.90;99.90;;;;;;4894380;29;20037;-81
2020/12/23 08:36:11;;;;;;;23.05;14.73;;;11.90;99.90;;;;;;4870728;29;20051;-81
2020/12/23 08:38:40;;;;;;;24.67;15.60;;;11.90;99.90;;;;;;4884723;29;20043;-81
2020/12/23 08:41:17;;;;;;;21.23;12.52;;;11.90;99.90;;;;;;4898599;29;20067;-81
2020/12/23 08:43:49;;;;;;;19.77;13.38;;;11.90;99.90;;;;;;4886763;29;20060;-81
2020/12/23 08:46:26;;;;;;;22.83;13.55;;;11.90;99.90;;;;;;4882612;29;20048;-81
2020/12/23 08:48:54;;;;;;;20.15;12.82;;;11.90;99.90;;;;;;4895592;29;20036;-83
2020/12/23 08:51:22;;;;;;;16.55;10.98;;;12.00;99.90;;;;;;4885654;29;20041;-83
2020/12/23 08:53:52;;;;;;;20.77;11.75;;;12.00;99.90;;;;;;4896212;29;20052;-80
2020/12/23 08:56:29;;;;;;;19.48;12.00;;;12.00;99.90;;;;;;4889361;29;20067;-79
2020/12/23 08:58:59;;;;;;;20.20;12.63;;;12.00;99.90;;;;;;4892065;29;20051;-79
2020/12/23 09:01:26;;;;;;;18.33;10.55;;;12.00;99.90;;;;;;4884619;29;20036;-79
2020/12/23 09:04:04;;;;;;;16.80;10.77;;;12.00;99.90;;;;;;4861254;29;20036;-80
2020/12/23 09:06:31;;;;;;;14.55;9.85;;;12.00;99.90;;;;;;4896179;29;20063;-80
2020/12/23 09:09:23;;;;;;;14.80;10.52;;;12.00;99.90;;;;;;4898403;29;20041;-82
2020/12/23 09:11:55;;;;;;;14.27;9.55;;;12.00;99.90;;;;;;4888120;29;20049;-80
2020/12/23 09:14:37;;;;;;;17.58;11.75;;;12.00;99.90;;;;;;4889819;29;20045;-79
2020/12/23 09:17:06;;;;;;;14.48;9.30;;;12.00;99.90;;;;;;4901132;29;20063;-79
2020/12/23 09:19:44;;;;;;;16.35;10.10;;;12.00;99.90;;;;;;4897903;29;20070;-79
2020/12/23 09:22:27;;;;;;;14.60;8.93;;;12.00;99.90;;;;;;4859700;29;20480;-79
2020/12/23 09:25:19;;;;;;;13.85;8.43;;;12.10;99.90;;;;;;4893525;29;20051;-79
2020/12/23 09:27:49;;;;;;;13.85;10.00;;;12.10;99.90;;;;;;4875197;29;20028;-79
2020/12/23 09:30:31;;;;;;;17.17;11.07;;;12.10;99.90;;;;;;4876407;29;20037;-79
2020/12/23 09:32:58;;;;;;;;;;;12.10;99.90;;;;;;4885509;29;20045;-79
2020/12/23 09:35:26;;;;;;;12.50;8.82;;;12.10;99.90;;;;;;4896973;29;20298;-79
2020/12/23 09:38:14;;;;;;;13.63;8.52;;;12.10;99.90;;;;;;4885865;29;20059;-79
2020/12/23 09:40:44;;;;;;;10.77;6.95;;;12.10;99.90;;;;;;4877328;29;20512;-79
2020/12/23 09:43:14;;;;;;;12.98;8.20;;;12.10;99.90;;;;;;4876001;29;20040;-80
2020/12/23 09:45:41;;;;;;;8.35;5.72;;;12.10;99.90;;;;;;4880305;29;20045;-79
2020/12/23 09:48:08;;;;;;;10.52;6.22;;;12.20;99.90;;;;;;4883034;29;20059;-79
2020/12/23 09:50:34;;;;;;;9.13;6.35;;;12.20;99.90;;;;;;4896605;29;20047;-79
2020/12/23 09:53:01;;;;;;;8.05;5.18;;;12.20;99.90;;;;;;4852535;29;20047;-79
2020/12/23 09:55:28;;;;;;;8.88;5.55;;;12.20;99.90;;;;;;4888449;29;20083;-79
2020/12/23 09:57:56;;;;;;;8.38;6.00;;;12.10;99.90;;;;;;4869634;29;20052;-79
2020/12/23 10:00:22;;;;;;;8.55;5.22;;;12.20;99.90;;;;;;4877042;29;20055;-79
2020/12/23 10:02:49;;;;;;;9.40;5.60;;;12.20;99.90;;;;;;4855390;29;20043;-80
2020/12/23 10:05:15;;;;;;;9.05;5.40;;;12.20;99.90;;;;;;4880749;29;20048;-79
2020/12/23 10:07:42;;;;;;;8.15;5.72;;;12.20;99.90;;;;;;4851824;29;20424;-79
2020/12/23 10:10:08;;;;;;;6.28;4.18;;;12.20;99.90;;;;;;4888815;29;20491;-79
2020/12/23 10:12:36;;;;;;;8.65;4.68;;;12.20;99.90;;;;;;4876641;29;20036;-79
2020/12/23 10:15:05;;;;;;;8.57;4.78;;;12.20;99.90;;;;;;4870449;29;20056;-79
2020/12/23 10:17:33;;;;;;;11.20;6.20;;;12.20;99.90;;;;;;4901241;29;20059;-79
2020/12/23 10:19:59;;;;;;;9.35;4.70;;;12.30;99.90;;;;;;4896374;29;20020;-79
2020/12/23 10:22:26;;;;;;;8.68;4.85;;;12.30;99.90;;;;;;4887433;29;20060;-79
2020/12/23 10:24:52;;;;;;;7.00;4.00;;;12.30;99.90;;;;;;4853294;29;20040;-79
2020/12/23 10:27:19;;;;;;;10.63;6.35;;;12.30;99.90;;;;;;4890330;29;20400;-79
2020/12/23 10:29:48;;;;;;;10.27;5.60;;;12.30;99.90;;;;;;4878230;29;20470;-76
2020/12/23 10:32:18;;;;;;;9.75;6.18;;;12.30;99.90;;;;;;4854654;29;20515;-76
2020/12/23 10:34:47;;;;;;;6.63;4.63;;;12.30;99.90;;;;;;4859979;29;20049;-76
2020/12/23 10:37:20;;;;;;;7.55;4.95;;;12.30;99.90;;;;;;4831207;29;20041;-79
2020/12/23 10:39:47;;;;;;;;;;;12.40;99.90;;;;;;4842004;29;20056;-79
2020/12/23 10:42:16;;;;;;;7.47;3.85;;;12.40;99.90;;;;;;4898560;29;19919;-79
2020/12/23 10:44:43;;;;;;;8.90;5.25;;;12.40;99.90;;;;;;4864351;29;20503;-79
2020/12/23 10:47:10;;;;;;;9.77;5.80;;;12.40;99.90;;;;;;4870407;29;20037;-79
2020/12/23 10:49:36;;;;;;;8.85;4.80;;;12.40;99.90;;;;;;4887324;29;20036;-79
2020/12/23 10:52:03;;;;;;;7.15;4.43;;;12.40;99.90;;;;;;4873273;29;20052;-79
2020/12/23 10:54:30;;;;;;;14.13;9.02;;;12.50;99.90;;;;;;4853450;29;20404;-78
2020/12/23 10:56:58;;;;;;;12.50;8.38;;;12.50;99.90;;;;;;4856091;29;20049;-78
2020/12/23 10:59:25;;;;;;;12.95;8.90;;;12.50;99.90;;;;;;4906296;29;20507;-78
2020/12/23 11:01:56;;;;;;;13.55;7.75;;;12.50;99.90;;;;;;4902653;29;20507;-82
2020/12/23 11:04:23;;;;;;;9.35;6.35;;;12.50;99.90;;;;;;4864012;29;20037;-79
2020/12/23 11:06:51;;;;;;;16.10;10.73;;;12.50;99.90;;;;;;4892331;29;20052;-79
2020/12/23 11:09:20;;;;;;;11.52;8.57;;;12.50;99.90;;;;;;4893961;29;20052;-78
2020/12/23 11:11:51;;;;;;;11.00;7.63;;;12.50;99.90;;;;;;4892149;29;20047;-78
2020/12/23 11:14:18;;;;;;;13.82;9.20;;;12.50;99.90;;;;;;4892631;29;20052;-79
2020/12/23 11:16:48;;;;;;;10.60;6.75;;;12.40;99.90;;;;;;4895218;29;20052;-80
2020/12/23 11:19:15;;;;;;;10.18;7.30;;;12.40;99.90;;;;;;4893952;29;20056;-78
2020/12/23 11:21:42;;;;;;;10.07;5.80;;;12.40;99.90;;;;;;4853251;29;20043;-78
2020/12/23 11:24:09;;;;;;;11.85;6.07;;;12.40;99.90;;;;;;4879034;29;20055;-77
2020/12/23 11:26:35;;;;;;;11.13;6.22;;;12.40;99.90;;;;;;4894126;29;20063;-77
2020/12/23 11:29:03;;;;;;;11.77;6.13;;;12.40;99.90;;;;;;4899300;29;20040;-78
2020/12/23 11:31:30;;;;;;;7.78;5.05;;;12.40;99.90;;;;;;4888469;29;20382;-78
2020/12/23 11:33:57;;;;;;;13.70;6.43;;;12.40;99.90;;;;;;4864429;29;20041;-78
2020/12/23 11:36:24;;;;;;;11.02;5.95;;;12.40;99.90;;;;;;4896497;29;20044;-78
2020/12/23 11:38:50;;;;;;;10.30;6.63;;;12.30;99.90;;;;;;4897008;29;20499;-78
2020/12/23 11:41:17;;;;;;;8.82;5.22;;;12.40;99.90;;;;;;4892947;29;20064;-78
2020/12/23 11:43:43;;;;;;;16.50;9.35;;;12.30;99.90;;;;;;4894266;29;20048;-78
2020/12/23 11:46:10;;;;;;;11.07;6.47;;;12.40;99.90;;;;;;4868479;29;20042;-78
2020/12/23 11:48:39;;;;;;;10.63;6.38;;;12.30;99.90;;;;;;4872426;29;20498;-77
2020/12/23 11:51:07;;;;;;;8.75;5.35;;;12.30;99.90;;;;;;4890038;29;20044;-78
2020/12/23 11:53:37;;;;;;;7.18;4.55;;;12.40;99.90;;;;;;4896999;29;20055;-77
2020/12/23 11:56:07;;;;;;;7.97;5.18;;;12.40;99.90;;;;;;4868776;29;20055;-77
2020/12/23 11:58:37;;;;;;;13.52;7.95;;;12.30;99.90;;;;;;4882929;29;20040;-79
2020/12/23 12:01:04;;;;;;;7.70;4.82;;;12.30;99.90;;;;;;4865515;29;20039;-78
2020/12/23 12:03:31;;;;;;;7.90;5.97;;;12.30;99.90;;;;;;4866501;29;20063;-78
2020/12/23 12:05:57;;;;;;;7.70;5.60;;;12.30;99.90;;;;;;4897347;29;20032;-77
2020/12/23 12:08:24;;;;;;;12.85;9.15;;;12.30;99.90;;;;;;4874800;29;20048;-78
2020/12/23 12:10:52;;;;;;;9.90;7.70;;;12.30;99.90;;;;;;4880074;29;20044;-78
2020/12/23 12:13:19;;;;;;;11.80;7.50;;;12.30;99.90;;;;;;4870875;29;20060;-78
2020/12/23 12:15:45;;;;;;;17.17;11.27;;;12.20;99.90;;;;;;4876002;29;20051;-78
2020/12/23 12:18:12;;;;;;;12.95;10.23;;;12.20;99.90;;;;;;4902198;29;20052;-78
2020/12/23 12:20:40;;;;;;;11.63;9.00;;;12.20;99.90;;;;;;4882530;29;20053;-77
2020/12/23 12:23:06;;;;;;;8.07;7.07;;;12.20;99.90;;;;;;4857361;29;20041;-78
2020/12/23 12:25:34;;;;;;;11.52;8.68;;;12.20;99.90;;;;;;4888903;29;20045;-78
2020/12/23 12:28:02;;;;;;;11.13;9.35;;;12.20;99.90;;;;;;4881492;29;20045;-78
2020/12/23 12:30:31;;;;;;;9.23;7.68;;;12.20;99.90;;;;;;4874996;29;20508;-78
2020/12/23 12:32:58;;;;;;;9.77;8.15;;;12.20;99.90;;;;;;4883224;29;20071;-78
2020/12/23 12:35:24;;;;;;;7.13;6.38;;;12.20;99.90;;;;;;4881923;29;20055;-78